createdAt,value
2018-08-06T00:00:01.598Z,1008.03
2018-08-06T00:01:01.502Z,1007.99
2018-08-06T00:02:01.527Z,1007.98
2018-08-06T00:03:01.511Z,1007.98
2018-08-06T00:04:01.493Z,1007.97
2018-08-06T00:05:01.480Z,1008.00
2018-08-06T00:06:01.480Z,1007.97
2018-08-06T00:07:01.515Z,1008.05
2018-08-06T00:08:01.454Z,1008.04
2018-08-06T00:09:01.500Z,1008.04
2018-08-06T00:10:01.446Z,1008.04
2018-08-06T00:11:01.429Z,1008.01
2018-08-06T00:12:01.447Z,1008.03
2018-08-06T00:13:01.418Z,1008.01
2018-08-06T00:14:01.451Z,1008.04
2018-08-06T00:15:01.451Z,1008.02
2018-08-06T00:16:01.391Z,1008.03
2018-08-06T00:17:01.395Z,1007.98
2018-08-06T00:18:01.402Z,1008.02
2018-08-06T00:19:01.376Z,1008.02
2018-08-06T00:20:01.405Z,1008.03
2018-08-06T00:21:01.360Z,1008.05
2018-08-06T00:22:01.354Z,1008.03
2018-08-06T00:23:01.352Z,1008.04
2018-08-06T00:24:01.344Z,1008.02
2018-08-06T00:25:01.340Z,1008.03
2018-08-06T00:26:01.364Z,1008.08
2018-08-06T00:27:01.316Z,1008.06
2018-08-06T00:28:01.316Z,1008.05
2018-08-06T00:29:01.299Z,1008.04
2018-08-06T00:30:01.575Z,1007.98
2018-08-06T00:31:01.291Z,1007.98
2018-08-06T00:32:01.278Z,1007.94
2018-08-06T00:33:01.257Z,1007.94
2018-08-06T00:34:01.259Z,1007.89
2018-08-06T00:35:01.262Z,1007.88
2018-08-06T00:36:01.282Z,1007.91
2018-08-06T00:37:01.235Z,1007.88
2018-08-06T00:38:01.223Z,1007.81
2018-08-06T00:39:01.217Z,1007.80
2018-08-06T00:40:01.220Z,1007.83
2018-08-06T00:41:01.237Z,1007.78
2018-08-06T00:42:01.246Z,1007.82
2018-08-06T00:43:01.197Z,1007.78
2018-08-06T00:44:01.171Z,1007.78
2018-08-06T00:45:01.178Z,1007.80
2018-08-06T00:46:01.168Z,1007.84
2018-08-06T00:47:01.182Z,1007.84
2018-08-06T00:48:01.192Z,1007.84
2018-08-06T00:49:01.143Z,1007.84
2018-08-06T00:50:01.137Z,1007.81
2018-08-06T00:51:01.121Z,1007.81
2018-08-06T00:52:01.111Z,1007.82
2018-08-06T00:53:01.124Z,1007.80
2018-08-06T00:54:01.111Z,1007.76
2018-08-06T00:55:01.098Z,1007.76
2018-08-06T00:56:01.095Z,1007.73
2018-08-06T00:57:01.090Z,1007.73
2018-08-06T00:58:01.082Z,1007.74
2018-08-06T00:59:01.065Z,1007.73
2018-08-06T01:00:01.049Z,1007.71
2018-08-06T01:01:01.050Z,1007.73
2018-08-06T01:02:01.039Z,1007.72
2018-08-06T01:03:01.092Z,1007.68
2018-08-06T01:04:01.023Z,1007.70
2018-08-06T01:05:01.015Z,1007.67
2018-08-06T01:06:01.009Z,1007.68
2018-08-06T01:07:00.999Z,1007.67
2018-08-06T01:08:00.993Z,1007.65
2018-08-06T01:09:01.032Z,1007.65
2018-08-06T01:10:00.979Z,1007.63
2018-08-06T01:11:00.969Z,1007.64
2018-08-06T01:12:00.967Z,1007.63
2018-08-06T01:13:00.960Z,1007.62
2018-08-06T01:14:00.980Z,1007.55
2018-08-06T01:15:00.944Z,1007.57
2018-08-06T01:16:00.928Z,1007.56
2018-08-06T01:17:00.916Z,1007.53
2018-08-06T01:18:00.913Z,1007.56
2018-08-06T01:19:00.907Z,1007.54
2018-08-06T01:20:00.920Z,1007.53
2018-08-06T01:21:00.885Z,1007.54
2018-08-06T01:22:00.890Z,1007.50
2018-08-06T01:23:00.870Z,1007.49
2018-08-06T01:24:00.869Z,1007.51
2018-08-06T01:25:00.868Z,1007.50
2018-08-06T01:26:00.869Z,1007.49
2018-08-06T01:27:00.844Z,1007.49
2018-08-06T01:28:00.841Z,1007.48
2018-08-06T01:29:00.822Z,1007.48
2018-08-06T01:30:00.833Z,1007.48
2018-08-06T01:31:00.846Z,1007.51
2018-08-06T01:32:00.805Z,1007.52
2018-08-06T01:33:00.781Z,1007.53
2018-08-06T01:34:00.784Z,1007.49
2018-08-06T01:35:00.813Z,1007.48
2018-08-06T01:36:00.773Z,1007.44
2018-08-06T01:37:00.759Z,1007.41
2018-08-06T01:38:00.755Z,1007.43
2018-08-06T01:39:00.748Z,1007.40
2018-08-06T01:40:00.779Z,1007.40
2018-08-06T01:41:00.728Z,1007.41
2018-08-06T01:42:00.715Z,1007.41
2018-08-06T01:43:00.712Z,1007.39
2018-08-06T01:44:00.707Z,1007.37
2018-08-06T01:45:00.727Z,1007.37
2018-08-06T01:46:00.689Z,1007.31
2018-08-06T01:47:00.672Z,1007.32
2018-08-06T01:48:00.699Z,1007.27
2018-08-06T01:49:00.665Z,1007.26
2018-08-06T01:50:00.655Z,1007.25
2018-08-06T01:51:00.657Z,1007.24
2018-08-06T01:52:00.650Z,1007.27
2018-08-06T01:53:00.623Z,1007.23
2018-08-06T01:54:00.623Z,1007.27
2018-08-06T01:55:00.611Z,1007.23
2018-08-06T01:56:00.604Z,1007.24
2018-08-06T01:57:00.638Z,1007.23
2018-08-06T01:58:00.647Z,1007.19
2018-08-06T01:59:00.574Z,1007.20
2018-08-06T02:00:00.564Z,1007.19
2018-08-06T02:01:00.559Z,1007.19
2018-08-06T02:02:00.554Z,1007.15
2018-08-06T02:03:00.536Z,1007.13
2018-08-06T02:04:00.589Z,1007.13
2018-08-06T02:05:00.528Z,1007.08
2018-08-06T02:06:00.515Z,1007.07
2018-08-06T02:07:00.504Z,1007.06
2018-08-06T02:08:00.507Z,1007.02
2018-08-06T02:09:00.491Z,1007.01
2018-08-06T02:10:00.534Z,1007.01
2018-08-06T02:11:00.485Z,1007.00
2018-08-06T02:12:00.489Z,1007.01
2018-08-06T02:13:00.472Z,1007.03
2018-08-06T02:14:00.445Z,1007.01
2018-08-06T02:15:00.436Z,1007.00
2018-08-06T02:16:00.466Z,1007.01
2018-08-06T02:17:00.418Z,1007.04
2018-08-06T02:18:00.402Z,1007.05
2018-08-06T02:19:00.400Z,1007.01
2018-08-06T02:20:00.433Z,1007.01
2018-08-06T02:21:00.370Z,1006.95
2018-08-06T02:22:00.364Z,1006.97
2018-08-06T02:23:00.363Z,1006.97
2018-08-06T02:24:00.350Z,1006.90
2018-08-06T02:25:00.380Z,1006.91
2018-08-06T02:26:00.374Z,1006.93
2018-08-06T02:27:00.331Z,1006.87
2018-08-06T02:28:00.325Z,1006.88
2018-08-06T02:29:00.313Z,1006.84
2018-08-06T02:30:00.314Z,1006.86
2018-08-06T02:31:00.332Z,1006.85
2018-08-06T02:32:00.277Z,1006.87
2018-08-06T02:33:00.278Z,1006.85
2018-08-06T02:34:00.271Z,1006.78
2018-08-06T02:35:00.264Z,1006.84
2018-08-06T02:36:00.463Z,1006.83
2018-08-06T02:37:00.235Z,1006.82
2018-08-06T02:38:00.265Z,1006.87
2018-08-06T02:39:00.217Z,1006.87
2018-08-06T02:40:00.215Z,1006.85
2018-08-06T02:41:00.208Z,1006.83
2018-08-06T02:42:00.204Z,1006.82
2018-08-06T02:43:00.196Z,1006.76
2018-08-06T02:44:00.174Z,1006.77
2018-08-06T02:45:00.181Z,1006.81
2018-08-06T02:46:00.152Z,1006.79
2018-08-06T02:47:00.164Z,1006.80
2018-08-06T02:48:00.152Z,1006.74
2018-08-06T02:49:00.138Z,1006.75
2018-08-06T02:50:00.134Z,1006.75
2018-08-06T02:51:00.119Z,1006.71
2018-08-06T02:52:00.161Z,1006.71
2018-08-06T02:53:00.105Z,1006.70
2018-08-06T02:54:00.082Z,1006.69
2018-08-06T02:55:00.079Z,1006.71
2018-08-06T02:56:00.081Z,1006.71
2018-08-06T02:57:00.086Z,1006.71
2018-08-06T02:58:00.052Z,1006.68
2018-08-06T02:59:00.051Z,1006.68
2018-08-06T03:00:00.040Z,1006.75
2018-08-06T03:01:00.106Z,1006.74
2018-08-06T03:02:00.025Z,1006.72
2018-08-06T03:03:00.003Z,1006.74
2018-08-06T03:04:00.004Z,1006.74
2018-08-06T03:04:59.997Z,1006.75
2018-08-06T03:06:00.068Z,1006.73
2018-08-06T03:06:59.985Z,1006.70
2018-08-06T03:07:59.959Z,1006.66
2018-08-06T03:08:59.971Z,1006.68
2018-08-06T03:09:59.965Z,1006.69
2018-08-06T03:10:59.944Z,1006.66
2018-08-06T03:11:59.980Z,1006.68
2018-08-06T03:12:59.922Z,1006.68
2018-08-06T03:13:59.916Z,1006.68
2018-08-06T03:14:59.900Z,1006.66
2018-08-06T03:15:59.901Z,1006.66
2018-08-06T03:16:59.925Z,1006.67
2018-08-06T03:17:59.886Z,1006.65
2018-08-06T03:18:59.984Z,1006.64
2018-08-06T03:19:59.849Z,1006.66
2018-08-06T03:20:59.851Z,1006.67
2018-08-06T03:21:59.841Z,1006.67
2018-08-06T03:22:59.861Z,1006.70
2018-08-06T03:23:59.833Z,1006.70
2018-08-06T03:24:59.854Z,1006.71
2018-08-06T03:25:59.841Z,1006.71
2018-08-06T03:26:59.798Z,1006.72
2018-08-06T03:27:59.777Z,1006.76
2018-08-06T03:28:59.784Z,1006.77
2018-08-06T03:29:59.775Z,1006.78
2018-08-06T03:30:59.810Z,1006.79
2018-08-06T03:31:59.748Z,1006.81
2018-08-06T03:32:59.740Z,1006.81
2018-08-06T03:33:59.730Z,1006.79
2018-08-06T03:34:59.727Z,1006.81
2018-08-06T03:35:59.714Z,1006.83
2018-08-06T03:36:59.728Z,1006.82
2018-08-06T03:37:59.692Z,1006.78
2018-08-06T03:38:59.688Z,1006.74
2018-08-06T03:39:59.691Z,1006.77
2018-08-06T03:40:59.685Z,1006.79
2018-08-06T03:41:59.660Z,1006.77
2018-08-06T03:42:59.658Z,1006.76
2018-08-06T03:43:59.647Z,1006.73
2018-08-06T03:44:59.641Z,1006.72
2018-08-06T03:45:59.657Z,1006.71
2018-08-06T03:46:59.656Z,1006.72
2018-08-06T03:47:59.609Z,1006.72
2018-08-06T03:48:59.586Z,1006.70
2018-08-06T03:49:59.606Z,1006.72
2018-08-06T03:50:59.574Z,1006.71
2018-08-06T03:51:59.607Z,1006.76
2018-08-06T03:52:59.603Z,1006.76
2018-08-06T03:53:59.552Z,1006.79
2018-08-06T03:54:59.539Z,1006.77
2018-08-06T03:55:59.538Z,1006.80
2018-08-06T03:56:59.580Z,1006.77
2018-08-06T03:57:59.521Z,1006.75
2018-08-06T03:58:59.495Z,1006.76
2018-08-06T03:59:59.498Z,1006.73
2018-08-06T04:00:59.482Z,1006.72
2018-08-06T04:01:59.474Z,1006.74
2018-08-06T04:02:59.504Z,1006.71
2018-08-06T04:03:59.455Z,1006.70
2018-08-06T04:04:59.436Z,1006.72
2018-08-06T04:05:59.435Z,1006.72
2018-08-06T04:06:59.418Z,1006.72
2018-08-06T04:07:59.443Z,1006.71
2018-08-06T04:08:59.407Z,1006.68
2018-08-06T04:09:59.404Z,1006.70
2018-08-06T04:10:59.389Z,1006.68
2018-08-06T04:11:59.388Z,1006.68
2018-08-06T04:12:59.399Z,1006.64
2018-08-06T04:13:59.428Z,1006.65
2018-08-06T04:14:59.351Z,1006.64
2018-08-06T04:15:59.347Z,1006.60
2018-08-06T04:16:59.338Z,1006.61
2018-08-06T04:17:59.326Z,1006.61
2018-08-06T04:18:59.315Z,1006.60
2018-08-06T04:19:59.348Z,1006.60
2018-08-06T04:20:59.324Z,1006.61
2018-08-06T04:21:59.289Z,1006.61
2018-08-06T04:22:59.275Z,1006.59
2018-08-06T04:23:59.267Z,1006.62
2018-08-06T04:24:59.310Z,1006.58
2018-08-06T04:25:59.260Z,1006.58
2018-08-06T04:26:59.236Z,1006.58
2018-08-06T04:27:59.237Z,1006.54
2018-08-06T04:28:59.224Z,1006.55
2018-08-06T04:29:59.207Z,1006.52
2018-08-06T04:30:59.217Z,1006.52
2018-08-06T04:31:59.251Z,1006.49
2018-08-06T04:32:59.195Z,1006.55
2018-08-06T04:33:59.174Z,1006.53
2018-08-06T04:34:59.174Z,1006.51
2018-08-06T04:35:59.158Z,1006.57
2018-08-06T04:36:59.139Z,1006.58
2018-08-06T04:37:59.151Z,1006.59
2018-08-06T04:38:59.139Z,1006.60
2018-08-06T04:39:59.116Z,1006.59
2018-08-06T04:40:59.122Z,1006.58
2018-08-06T04:41:59.152Z,1006.55
2018-08-06T04:42:59.095Z,1006.55
2018-08-06T04:43:59.079Z,1006.51
2018-08-06T04:44:59.078Z,1006.53
2018-08-06T04:45:59.126Z,1006.53
2018-08-06T04:46:59.059Z,1006.53
2018-08-06T04:47:59.063Z,1006.53
2018-08-06T04:48:59.042Z,1006.54
2018-08-06T04:49:59.075Z,1006.52
2018-08-06T04:50:59.023Z,1006.54
2018-08-06T04:51:59.008Z,1006.53
2018-08-06T04:52:58.989Z,1006.57
2018-08-06T04:53:59.033Z,1006.57
2018-08-06T04:54:59.042Z,1006.56
2018-08-06T04:55:58.974Z,1006.58
2018-08-06T04:56:58.962Z,1006.56
2018-08-06T04:57:58.950Z,1006.58
2018-08-06T04:58:58.942Z,1006.58
2018-08-06T04:59:58.938Z,1006.58
2018-08-06T05:00:58.939Z,1006.57
2018-08-06T05:01:58.917Z,1006.57
2018-08-06T05:02:58.914Z,1006.55
2018-08-06T05:03:58.892Z,1006.52
2018-08-06T05:04:58.893Z,1006.51
2018-08-06T05:05:58.918Z,1006.50
2018-08-06T05:06:58.954Z,1006.52
2018-08-06T05:07:58.861Z,1006.51
2018-08-06T05:08:58.856Z,1006.52
2018-08-06T05:09:58.854Z,1006.50
2018-08-06T05:10:58.871Z,1006.49
2018-08-06T05:11:58.846Z,1006.47
2018-08-06T05:12:58.825Z,1006.46
2018-08-06T05:13:58.825Z,1006.43
2018-08-06T05:14:58.800Z,1006.43
2018-08-06T05:15:58.794Z,1006.45
2018-08-06T05:16:58.798Z,1006.46
2018-08-06T05:17:58.786Z,1006.48
2018-08-06T05:18:58.779Z,1006.47
2018-08-06T05:19:59.760Z,1006.51
2018-08-06T05:20:58.750Z,1006.53
2018-08-06T05:21:58.758Z,1006.51
2018-08-06T05:22:58.739Z,1006.48
2018-08-06T05:23:58.708Z,1006.53
2018-08-06T05:24:58.734Z,1006.54
2018-08-06T05:25:58.690Z,1006.50
2018-08-06T05:26:58.687Z,1006.50
2018-08-06T05:27:58.675Z,1006.53
2018-08-06T05:28:59.031Z,1006.51
2018-08-06T05:29:58.652Z,1006.51
2018-08-06T05:30:58.656Z,1006.55
2018-08-06T05:31:58.643Z,1006.56
2018-08-06T05:32:58.639Z,1006.56
2018-08-06T05:33:58.638Z,1006.57
2018-08-06T05:34:58.618Z,1006.56
2018-08-06T05:35:58.606Z,1006.60
2018-08-06T05:36:58.601Z,1006.59
2018-08-06T05:37:58.585Z,1006.63
2018-08-06T05:38:58.577Z,1006.58
2018-08-06T05:39:58.591Z,1006.61
2018-08-06T05:40:58.608Z,1006.62
2018-08-06T05:41:58.549Z,1006.62
2018-08-06T05:42:58.545Z,1006.61
2018-08-06T05:43:58.524Z,1006.60
2018-08-06T05:44:58.537Z,1006.57
2018-08-06T05:45:58.511Z,1006.54
2018-08-06T05:46:58.512Z,1006.53
2018-08-06T05:47:58.491Z,1006.51
2018-08-06T05:48:58.492Z,1006.50
2018-08-06T05:49:58.507Z,1006.48
2018-08-06T05:50:58.504Z,1006.43
2018-08-06T05:51:58.465Z,1006.49
2018-08-06T05:52:58.454Z,1006.46
2018-08-06T05:53:58.450Z,1006.50
2018-08-06T05:54:58.455Z,1006.48
2018-08-06T05:55:58.432Z,1006.51
2018-08-06T05:56:58.426Z,1006.51
2018-08-06T05:57:58.410Z,1006.52
2018-08-06T05:58:58.411Z,1006.53
2018-08-06T05:59:58.469Z,1006.53
2018-08-06T06:00:58.390Z,1006.52
2018-08-06T06:01:58.382Z,1006.52
2018-08-06T06:02:58.366Z,1006.52
2018-08-06T06:03:58.360Z,1006.54
2018-08-06T06:04:58.341Z,1006.55
2018-08-06T06:05:58.371Z,1006.56
2018-08-06T06:06:58.338Z,1006.56
2018-08-06T06:07:58.357Z,1006.59
2018-08-06T06:08:58.312Z,1006.59
2018-08-06T06:09:58.306Z,1006.62
2018-08-06T06:10:58.317Z,1006.63
2018-08-06T06:11:58.332Z,1006.64
2018-08-06T06:12:58.274Z,1006.65
2018-08-06T06:13:58.275Z,1006.64
2018-08-06T06:14:58.298Z,1006.62
2018-08-06T06:15:58.245Z,1006.61
2018-08-06T06:16:58.246Z,1006.59
2018-08-06T06:17:58.263Z,1006.61
2018-08-06T06:18:58.237Z,1006.57
2018-08-06T06:19:58.222Z,1006.59
2018-08-06T06:20:58.206Z,1006.55
2018-08-06T06:21:58.259Z,1006.55
2018-08-06T06:22:58.193Z,1006.52
2018-08-06T06:23:58.174Z,1006.56
2018-08-06T06:24:58.162Z,1006.53
2018-08-06T06:25:58.161Z,1006.52
2018-08-06T06:26:58.160Z,1006.53
2018-08-06T06:27:58.153Z,1006.52
2018-08-06T06:28:58.143Z,1006.50
2018-08-06T06:29:58.315Z,1006.46
2018-08-06T06:30:58.146Z,1006.47
2018-08-06T06:31:58.135Z,1006.47
2018-08-06T06:32:58.107Z,1006.48
2018-08-06T06:33:58.097Z,1006.45
2018-08-06T06:34:58.173Z,1006.46
2018-08-06T06:35:58.439Z,1006.42
2018-08-06T06:36:58.088Z,1006.44
2018-08-06T06:37:58.070Z,1006.45
2018-08-06T06:38:58.054Z,1006.44
2018-08-06T06:39:58.041Z,1006.42
2018-08-06T06:40:58.041Z,1006.42
2018-08-06T06:41:58.047Z,1006.38
2018-08-06T06:42:58.027Z,1006.35
2018-08-06T06:43:58.031Z,1006.35
2018-08-06T06:44:58.017Z,1006.36
2018-08-06T06:45:58.043Z,1006.28
2018-08-06T06:46:57.986Z,1006.33
2018-08-06T06:47:58.023Z,1006.31
2018-08-06T06:48:58.076Z,1006.32
2018-08-06T06:49:57.959Z,1006.33
2018-08-06T06:50:57.963Z,1006.33
2018-08-06T06:51:57.963Z,1006.35
2018-08-06T06:52:57.986Z,1006.33
2018-08-06T06:53:57.934Z,1006.35
2018-08-06T06:54:57.935Z,1006.34
2018-08-06T06:55:57.919Z,1006.35
2018-08-06T06:56:57.910Z,1006.34
2018-08-06T06:57:57.909Z,1006.37
2018-08-06T06:58:57.949Z,1006.33
2018-08-06T06:59:57.936Z,1006.29
2018-08-06T07:00:57.874Z,1006.33
2018-08-06T07:01:57.869Z,1006.29
2018-08-06T07:02:57.896Z,1006.29
2018-08-06T07:03:57.860Z,1006.32
2018-08-06T07:04:57.857Z,1006.31
2018-08-06T07:05:57.845Z,1006.33
2018-08-06T07:06:57.847Z,1006.32
2018-08-06T07:07:57.832Z,1006.32
2018-08-06T07:08:57.824Z,1006.30
2018-08-06T07:09:57.813Z,1006.29
2018-08-06T07:10:57.810Z,1006.33
2018-08-06T07:11:57.809Z,1006.30
2018-08-06T07:12:57.782Z,1006.30
2018-08-06T07:13:57.827Z,1006.30
2018-08-06T07:14:57.845Z,1006.31
2018-08-06T07:15:57.759Z,1006.26
2018-08-06T07:16:57.756Z,1006.28
2018-08-06T07:17:57.755Z,1006.24
2018-08-06T07:18:57.753Z,1006.20
2018-08-06T07:19:57.743Z,1006.22
2018-08-06T07:20:57.778Z,1006.22
2018-08-06T07:21:57.732Z,1006.17
2018-08-06T07:22:57.715Z,1006.17
2018-08-06T07:23:57.710Z,1006.21
2018-08-06T07:24:57.736Z,1006.19
2018-08-06T07:25:57.742Z,1006.15
2018-08-06T07:26:57.690Z,1006.12
2018-08-06T07:27:57.672Z,1006.13
2018-08-06T07:28:57.681Z,1006.17
2018-08-06T07:29:57.670Z,1006.14
2018-08-06T07:30:57.658Z,1006.13
2018-08-06T07:31:57.709Z,1006.11
2018-08-06T07:32:57.733Z,1006.11
2018-08-06T07:33:57.645Z,1006.11
2018-08-06T07:34:57.662Z,1006.09
2018-08-06T07:35:57.629Z,1006.09
2018-08-06T07:36:57.634Z,1006.09
2018-08-06T07:37:57.621Z,1006.10
2018-08-06T07:38:57.613Z,1006.12
2018-08-06T07:39:57.648Z,1006.13
2018-08-06T07:40:57.599Z,1006.10
2018-08-06T07:41:57.681Z,1006.11
2018-08-06T07:42:57.573Z,1006.09
2018-08-06T07:43:57.600Z,1006.10
2018-08-06T07:44:57.571Z,1006.06
2018-08-06T07:45:57.554Z,1006.09
2018-08-06T07:46:57.586Z,1006.05
2018-08-06T07:47:57.638Z,1006.06
2018-08-06T07:48:57.552Z,1006.05
2018-08-06T07:49:57.615Z,1006.02
2018-08-06T07:50:57.552Z,1006.05
2018-08-06T07:51:57.523Z,1006.04
2018-08-06T07:52:57.510Z,1006.05
2018-08-06T07:53:57.502Z,1006.01
2018-08-06T07:54:57.492Z,1006.01
2018-08-06T07:55:57.501Z,1006.02
2018-08-06T07:56:57.481Z,1006.00
2018-08-06T07:57:57.476Z,1006.00
2018-08-06T07:58:57.501Z,1005.99
2018-08-06T07:59:57.456Z,1005.96
2018-08-06T08:00:57.456Z,1005.97
2018-08-06T08:01:57.456Z,1006.00
2018-08-06T08:02:57.444Z,1006.03
2018-08-06T08:03:57.456Z,1005.97
2018-08-06T08:04:57.438Z,1005.96
2018-08-06T08:05:57.421Z,1005.98
2018-08-06T08:06:57.434Z,1006.00
2018-08-06T08:07:57.412Z,1005.99
2018-08-06T08:08:57.428Z,1005.98
2018-08-06T08:09:57.394Z,1005.97
2018-08-06T08:10:57.435Z,1005.96
2018-08-06T08:11:57.430Z,1005.96
2018-08-06T08:12:57.391Z,1005.97
2018-08-06T08:13:57.379Z,1005.96
2018-08-06T08:14:57.364Z,1005.96
2018-08-06T08:15:57.411Z,1005.94
2018-08-06T08:16:57.347Z,1005.94
2018-08-06T08:17:57.342Z,1005.91
2018-08-06T08:18:57.346Z,1005.92
2018-08-06T08:19:57.455Z,1005.92
2018-08-06T08:20:57.356Z,1005.92
2018-08-06T08:21:57.324Z,1005.90
2018-08-06T08:22:57.352Z,1005.90
2018-08-06T08:23:57.317Z,1005.88
2018-08-06T08:24:57.309Z,1005.85
2018-08-06T08:25:57.322Z,1005.84
2018-08-06T08:26:57.287Z,1005.84
2018-08-06T08:27:57.314Z,1005.83
2018-08-06T08:28:57.284Z,1005.84
2018-08-06T08:29:57.325Z,1005.84
2018-08-06T08:30:57.298Z,1005.83
2018-08-06T08:31:57.271Z,1005.76
2018-08-06T08:32:57.244Z,1005.78
2018-08-06T08:33:57.248Z,1005.78
2018-08-06T08:34:57.247Z,1005.76
2018-08-06T08:35:57.248Z,1005.77
2018-08-06T08:36:57.468Z,1005.78
2018-08-06T08:37:57.226Z,1005.79
2018-08-06T08:38:57.219Z,1005.76
2018-08-06T08:39:57.205Z,1005.68
2018-08-06T08:40:57.211Z,1005.67
2018-08-06T08:41:57.206Z,1005.66
2018-08-06T08:42:57.246Z,1005.66
2018-08-06T08:43:57.192Z,1005.68
2018-08-06T08:44:57.177Z,1005.63
2018-08-06T08:45:57.180Z,1005.65
2018-08-06T08:46:57.172Z,1005.64
2018-08-06T08:47:57.184Z,1005.64
2018-08-06T08:48:57.186Z,1005.66
2018-08-06T08:49:57.193Z,1005.66
2018-08-06T08:50:57.188Z,1005.65
2018-08-06T08:51:57.161Z,1005.59
2018-08-06T08:52:57.152Z,1005.57
2018-08-06T08:53:57.256Z,1005.52
2018-08-06T08:54:57.130Z,1005.54
2018-08-06T08:55:57.125Z,1005.56
2018-08-06T08:56:57.112Z,1005.58
2018-08-06T08:57:57.105Z,1005.60
2018-08-06T08:58:57.208Z,1005.62
2018-08-06T08:59:57.103Z,1005.57
2018-08-06T09:00:57.444Z,1005.57
2018-08-06T09:01:57.104Z,1005.58
2018-08-06T09:02:57.088Z,1005.57
2018-08-06T09:03:57.082Z,1005.53
2018-08-06T09:04:57.079Z,1005.56
2018-08-06T09:05:57.067Z,1005.54
2018-08-06T09:06:57.094Z,1005.55
2018-08-06T09:07:57.070Z,1005.57
2018-08-06T09:08:57.064Z,1005.56
2018-08-06T09:09:57.051Z,1005.55
2018-08-06T09:10:57.047Z,1005.56
2018-08-06T09:11:57.093Z,1005.51
2018-08-06T09:12:57.039Z,1005.45
2018-08-06T09:13:57.059Z,1005.49
2018-08-06T09:14:57.031Z,1005.43
2018-08-06T09:15:57.028Z,1005.48
2018-08-06T09:16:57.585Z,1005.44
2018-08-06T09:17:59.622Z,1005.42
2018-08-06T09:18:57.040Z,1005.35
2018-08-06T09:19:57.023Z,1005.35
2018-08-06T09:20:57.017Z,1005.36
2018-08-06T09:21:57.015Z,1005.33
2018-08-06T09:22:58.604Z,1005.33
2018-08-06T09:23:57.051Z,1005.34
2018-08-06T09:24:57.023Z,1005.33
2018-08-06T09:25:57.178Z,1005.30
2018-08-06T09:26:57.018Z,1005.35
2018-08-06T09:27:57.065Z,1005.44
2018-08-06T09:28:59.642Z,1005.48
2018-08-06T09:29:57.032Z,1005.49
2018-08-06T09:30:57.003Z,1005.51
2018-08-06T09:31:56.994Z,1005.51
2018-08-06T09:32:57.000Z,1005.46
2018-08-06T09:33:57.067Z,1005.48
2018-08-06T09:34:57.058Z,1005.48
2018-08-06T09:35:57.003Z,1005.46
2018-08-06T09:36:57.011Z,1005.42
2018-08-06T09:37:57.012Z,1005.48
2018-08-06T09:38:57.011Z,1005.41
2018-08-06T09:39:57.004Z,1005.43
2018-08-06T09:40:57.012Z,1005.43
2018-08-06T09:41:57.024Z,1005.43
2018-08-06T09:42:57.009Z,1005.39
2018-08-06T09:43:57.044Z,1005.38
2018-08-06T09:44:57.016Z,1005.47
2018-08-06T09:45:57.048Z,1005.45
2018-08-06T09:46:57.022Z,1005.45
2018-08-06T09:47:57.036Z,1005.42
2018-08-06T09:48:57.034Z,1005.47
2018-08-06T09:49:57.047Z,1005.44
2018-08-06T09:50:57.050Z,1005.44
2018-08-06T09:51:57.043Z,1005.44
2018-08-06T09:52:57.051Z,1005.46
2018-08-06T09:53:57.051Z,1005.51
2018-08-06T09:54:57.061Z,1005.47
2018-08-06T09:55:57.098Z,1005.52
2018-08-06T09:56:57.197Z,1005.49
2018-08-06T09:57:57.082Z,1005.47
2018-08-06T09:58:57.077Z,1005.47
2018-08-06T09:59:57.087Z,1005.46
2018-08-06T10:00:57.094Z,1005.42
2018-08-06T10:01:57.093Z,1005.36
2018-08-06T10:02:57.110Z,1005.36
2018-08-06T10:03:57.105Z,1005.37
2018-08-06T10:04:57.111Z,1005.38
2018-08-06T10:05:57.375Z,1005.43
2018-08-06T10:06:57.125Z,1005.44
2018-08-06T10:07:57.138Z,1005.43
2018-08-06T10:08:57.140Z,1005.46
2018-08-06T10:09:57.134Z,1005.47
2018-08-06T10:10:57.184Z,1005.43
2018-08-06T10:11:57.203Z,1005.38
2018-08-06T10:12:57.162Z,1005.40
2018-08-06T10:13:57.213Z,1005.41
2018-08-06T10:14:57.183Z,1005.38
2018-08-06T10:15:57.181Z,1005.36
2018-08-06T10:16:57.228Z,1005.33
2018-08-06T10:17:57.206Z,1005.31
2018-08-06T10:18:57.270Z,1005.30
2018-08-06T10:19:57.221Z,1005.27
2018-08-06T10:20:57.241Z,1005.23
2018-08-06T10:21:57.230Z,1005.28
2018-08-06T10:22:57.247Z,1005.24
2018-08-06T10:23:57.395Z,1005.20
2018-08-06T10:24:57.256Z,1005.22
2018-08-06T10:25:57.270Z,1005.26
2018-08-06T10:26:57.294Z,1005.23
2018-08-06T10:27:57.280Z,1005.23
2018-08-06T10:28:57.340Z,1005.24
2018-08-06T10:29:57.334Z,1005.23
2018-08-06T10:30:57.308Z,1005.20
2018-08-06T10:31:57.330Z,1005.14
2018-08-06T10:32:57.349Z,1005.20
2018-08-06T10:33:57.336Z,1005.20
2018-08-06T10:34:57.342Z,1005.08
2018-08-06T10:35:57.361Z,1004.94
2018-08-06T10:36:57.358Z,1004.82
2018-08-06T10:37:57.378Z,1005.04
2018-08-06T10:38:57.386Z,1005.69
2018-08-06T10:39:57.392Z,1005.62
2018-08-06T10:40:57.386Z,1005.13
2018-08-06T10:41:57.422Z,1004.93
2018-08-06T10:42:57.428Z,1004.58
2018-08-06T10:43:57.478Z,1004.47
2018-08-06T10:44:57.553Z,1004.53
2018-08-06T10:45:57.440Z,1004.61
2018-08-06T10:46:57.442Z,1004.46
2018-08-06T10:47:57.450Z,1004.45
2018-08-06T10:48:57.467Z,1004.49
2018-08-06T10:50:01.567Z,1004.47
2018-08-06T10:50:57.476Z,1004.35
2018-08-06T10:51:57.646Z,1004.38
2018-08-06T10:52:57.495Z,1004.33
2018-08-06T10:53:57.517Z,1004.30
2018-08-06T10:54:57.550Z,1004.23
2018-08-06T10:55:58.185Z,1004.24
2018-08-06T10:56:57.502Z,1004.19
2018-08-06T10:57:57.511Z,1004.23
2018-08-06T10:58:57.526Z,1004.28
2018-08-06T10:59:57.520Z,1004.18
2018-08-06T11:00:57.549Z,1004.18
2018-08-06T11:01:57.541Z,1004.15
2018-08-06T11:02:57.526Z,1004.21
2018-08-06T11:03:59.093Z,1004.20
2018-08-06T11:04:57.529Z,1004.12
2018-08-06T11:05:57.544Z,1004.06
2018-08-06T11:06:57.559Z,1004.08
2018-08-06T11:07:57.539Z,1004.03
2018-08-06T11:08:57.573Z,1004.06
2018-08-06T11:09:57.541Z,1004.01
2018-08-06T11:10:57.596Z,1003.99
2018-08-06T11:11:57.556Z,1004.00
2018-08-06T11:12:57.562Z,1003.97
2018-08-06T11:13:57.584Z,1003.91
2018-08-06T11:14:57.556Z,1003.87
2018-08-06T11:15:57.569Z,1003.96
2018-08-06T11:16:57.565Z,1003.92
2018-08-06T11:17:57.729Z,1003.87
2018-08-06T11:18:57.594Z,1003.84
2018-08-06T11:19:57.573Z,1003.79
2018-08-06T11:20:57.615Z,1003.85
2018-08-06T11:21:57.582Z,1003.79
2018-08-06T11:22:57.577Z,1003.73
2018-08-06T11:23:58.193Z,1003.74
2018-08-06T11:24:57.569Z,1003.70
2018-08-06T11:25:57.586Z,1003.71
2018-08-06T11:26:57.563Z,1003.70
2018-08-06T11:27:57.574Z,1003.68
2018-08-06T11:28:57.641Z,1003.64
2018-08-06T11:29:57.570Z,1003.69
2018-08-06T11:30:57.579Z,1003.69
2018-08-06T11:31:57.618Z,1003.71
2018-08-06T11:32:57.582Z,1003.74
2018-08-06T11:33:57.581Z,1003.97
2018-08-06T11:34:57.611Z,1004.00
2018-08-06T11:35:57.609Z,1003.98
2018-08-06T11:36:57.592Z,1004.22
2018-08-06T11:37:57.637Z,1004.43
2018-08-06T11:38:57.576Z,1004.25
2018-08-06T11:39:57.591Z,1003.90
2018-08-06T11:40:57.614Z,1003.79
2018-08-06T11:41:57.581Z,1003.65
2018-08-06T11:42:57.587Z,1003.63
2018-08-06T11:43:57.581Z,1003.74
2018-08-06T11:44:57.585Z,1003.73
2018-08-06T11:45:57.624Z,1003.95
2018-08-06T11:46:57.587Z,1004.28
2018-08-06T11:47:57.612Z,1004.28
2018-08-06T11:48:57.654Z,1004.10
2018-08-06T11:49:57.585Z,1004.14
2018-08-06T11:50:57.613Z,1003.83
2018-08-06T11:51:58.235Z,1004.23
2018-08-06T11:52:57.596Z,1004.44
2018-08-06T11:53:57.590Z,1004.27
2018-08-06T11:54:57.606Z,1003.85
2018-08-06T11:55:57.600Z,1003.99
2018-08-06T11:56:57.637Z,1004.07
2018-08-06T11:57:57.600Z,1004.33
2018-08-06T11:58:57.635Z,1003.76
2018-08-06T11:59:57.623Z,1004.26
2018-08-06T12:00:57.625Z,1004.27
2018-08-06T12:01:57.672Z,1004.33
2018-08-06T12:02:57.626Z,1004.76
2018-08-06T12:03:57.625Z,1004.37
2018-08-06T12:04:57.642Z,1004.31